Time;durP1;ratioP1;P1;durP2;ratioP2;P2;SDS_P1;SDS_P2;PMS_P1;PMS_P2;Temp;Humidity;BMP_temperature;BMP_pressure;BME280_temperature;BME280_humidity;BME280_pressure;Samples;Min_cycle;Max_cycle;Signal;HPM_P1;HPM_P2
2022/06/07 00:01:33;;;;;;;16.60;11.05;;;;;;;19.91;77.14;99370.56;5033619;28;20057;-72
2022/06/07 00:04:00;;;;;;;15.18;10.57;;;;;;;19.90;77.15;99364.06;5030483;28;20036;-72
2022/06/07 00:06:25;;;;;;;15.60;9.77;;;;;;;19.85;77.28;99360.81;5033478;28;20105;-73
2022/06/07 00:08:51;;;;;;;14.55;10.57;;;;;;;19.87;77.27;99352.69;5032043;28;20120;-73
2022/06/07 00:11:18;;;;;;;19.45;10.43;;;;;;;19.78;77.91;99351.06;5032899;28;20076;-73
2022/06/07 00:13:45;;;;;;;16.27;12.00;;;;;;;19.53;79.17;99353.00;5031508;28;20026;-72
2022/06/07 00:16:11;;;;;;;21.02;11.18;;;;;;;19.52;78.92;99348.53;5033242;28;20017;-72
2022/06/07 00:18:37;;;;;;;19.48;12.20;;;;;;;19.45;79.38;99352.97;5032672;28;20400;-72
2022/06/07 00:21:03;;;;;;;16.48;12.85;;;;;;;18.92;82.21;99363.59;5032137;28;20041;-72
2022/06/07 00:23:30;;;;;;;18.13;12.63;;;;;;;18.76;83.36;99349.75;5031753;28;20487;-73
2022/06/07 00:25:56;;;;;;;14.20;12.15;;;;;;;19.01;82.40;99346.28;5033303;28;20457;-72
2022/06/07 00:28:22;;;;;;;17.67;13.13;;;;;;;19.16;81.52;99350.00;5033256;28;20037;-73
2022/06/07 00:30:49;;;;;;;19.38;12.23;;;;;;;19.21;81.26;99346.78;5031625;28;20029;-73
2022/06/07 00:33:14;;;;;;;18.10;13.52;;;;;;;18.75;82.47;99353.75;5032619;28;20025;-72
2022/06/07 00:35:40;;;;;;;19.98;12.38;;;;;;;18.45;84.17;99343.44;5032679;28;20049;-72
2022/06/07 00:38:05;;;;;;;18.30;13.27;;;;;;;18.28;85.26;99335.59;5031478;28;20034;-72
2022/06/07 00:40:32;;;;;;;17.77;12.68;;;;;;;18.52;85.48;99352.00;5032652;28;20025;-72
2022/06/07 00:42:57;;;;;;;19.52;13.77;;;;;;;18.60;84.60;99352.84;5032919;28;20108;-72
2022/06/07 00:45:24;;;;;;;16.33;13.43;;;;;;;18.37;85.46;99353.88;5032887;28;20416;-72
2022/06/07 00:47:50;;;;;;;22.52;14.70;;;;;;;18.34;85.43;99351.03;5032791;28;20030;-72
2022/06/07 00:50:31;;;;;;;19.42;14.25;;;;;;;18.19;85.96;99350.06;5032485;28;20033;-73
2022/06/07 00:52:59;;;;;;;16.52;14.07;;;;;;;18.08;87.18;99358.47;5032717;28;20389;-72
2022/06/07 00:55:24;;;;;;;18.63;13.73;;;;;;;18.13;86.62;99357.31;5032287;28;20393;-72
2022/06/07 00:57:52;;;;;;;16.55;13.95;;;;;;;18.27;86.01;99354.59;5032694;28;20025;-72
2022/06/07 01:00:20;;;;;;;19.27;13.63;;;;;;;18.25;85.33;99354.19;5030926;28;20029;-72
2022/06/07 01:02:45;;;;;;;22.13;12.38;;;;;;;18.53;84.00;99352.78;5032541;28;20029;-72
2022/06/07 01:05:10;;;;;;;17.30;11.70;;;;;;;18.61;83.01;99356.50;5032283;28;20033;-72
2022/06/07 01:13:04;;;;;;;14.95;11.18;;;;;;;18.38;83.03;99337.69;5032450;28;20043;-72
2022/06/07 01:15:30;;;;;;;19.75;11.23;;;;;;;18.54;82.94;99348.75;5028559;28;20041;-72
2022/06/07 01:17:55;;;;;;;20.42;11.52;;;;;;;18.47;83.10;99337.38;5031260;28;20029;-72
2022/06/07 01:20:20;;;;;;;19.05;11.18;;;;;;;18.62;82.01;99338.28;5032125;28;20030;-72
2022/06/07 01:22:46;;;;;;;12.30;10.55;;;;;;;18.64;81.51;99339.53;5031765;28;20030;-72
2022/06/07 01:25:11;;;;;;;17.23;11.75;;;;;;;18.78;80.69;99343.66;5030624;28;20037;-72
2022/06/07 01:27:37;;;;;;;19.00;10.85;;;;;;;18.83;80.56;99336.81;5031998;28;20036;-72
2022/06/07 01:30:04;;;;;;;13.30;10.25;;;;;;;18.88;79.93;99334.44;5031775;28;20029;-72
2022/06/07 01:32:30;;;;;;;22.10;12.38;;;;;;;18.80;80.49;99332.75;5031997;28;20039;-72
2022/06/07 01:34:55;;;;;;;16.02;11.48;;;;;;;18.35;82.16;99336.47;5013156;28;20492;-72
2022/06/07 01:37:21;;;;;;;19.30;11.68;;;;;;;18.61;81.08;99342.34;5010673;28;20041;-72
2022/06/07 01:42:31;;;;;;;15.82;12.35;;;;;;;18.22;83.22;99344.44;5030595;28;20044;-72
2022/06/07 01:44:57;;;;;;;27.85;12.30;;;;;;;18.46;81.96;99333.72;5030388;28;20159;-72
2022/06/07 01:47:29;;;;;;;14.98;11.63;;;;;;;18.62;81.12;99344.78;5031550;28;20104;-73
2022/06/07 01:49:55;;;;;;;21.83;11.68;;;;;;;18.71;80.40;99341.59;5030454;28;20025;-72
2022/06/07 01:52:23;;;;;;;24.38;11.85;;;;;;;18.83;80.03;99336.81;5031474;28;20466;-72
2022/06/07 01:54:51;;;;;;;17.73;11.57;;;;;;;18.79;80.03;99348.94;5031651;28;20025;-72
2022/06/07 01:57:17;;;;;;;14.23;10.50;;;;;;;18.76;80.08;99360.25;5028519;28;20112;-72
2022/06/07 01:59:43;;;;;;;16.02;11.25;;;;;;;18.73;80.57;99353.34;5031595;28;20061;-72
2022/06/07 02:02:09;;;;;;;18.13;10.77;;;;;;;18.82;79.76;99355.81;5031526;28;20490;-72
2022/06/07 02:04:36;;;;;;;21.98;11.65;;;;;;;18.76;80.15;99360.25;5030177;28;20052;-72
2022/06/07 02:07:03;;;;;;;20.30;11.77;;;;;;;18.69;80.97;99363.03;5029959;28;20040;-72
2022/06/07 02:09:29;;;;;;;23.23;10.70;;;;;;;18.70;80.88;99367.47;5031442;28;20053;-72
2022/06/07 02:11:54;;;;;;;20.88;10.30;;;;;;;18.70;80.74;99361.81;5029992;28;20068;-72
2022/06/07 02:14:20;;;;;;;19.75;12.70;;;;;;;18.33;82.58;99364.34;5031459;28;20083;-72
2022/06/07 02:16:45;;;;;;;30.75;12.35;;;;;;;17.75;86.13;99368.59;5031370;28;20034;-72
2022/06/07 02:19:11;;;;;;;18.73;13.52;;;;;;;17.88;86.78;99363.50;5030030;28;20069;-72
2022/06/07 02:21:38;;;;;;;18.58;11.32;;;;;;;18.19;84.67;99373.53;5031171;28;20034;-72
2022/06/07 02:24:05;;;;;;;16.10;12.10;;;;;;;18.22;84.55;99377.59;5031353;28;20088;-72
2022/06/07 02:26:38;;;;;;;25.52;14.05;;;;;;;17.60;87.75;99353.47;5031189;28;20116;-72
2022/06/07 02:29:16;;;;;;;29.85;14.23;;;;;;;17.72;87.91;99375.81;5031194;28;20033;-72
2022/06/07 02:31:47;;;;;;;21.95;12.52;;;;;;;17.92;86.64;99375.66;5031185;28;20100;-72
2022/06/07 02:34:15;;;;;;;24.65;14.02;;;;;;;17.70;87.71;99372.56;5031025;28;20025;-72
2022/06/07 02:36:42;;;;;;;17.58;13.43;;;;;;;17.70;87.89;99374.59;5033011;28;20075;-72
2022/06/07 02:39:07;;;;;;;24.90;14.20;;;;;;;17.81;87.34;99367.84;5034963;28;20113;-72
2022/06/07 02:41:35;;;;;;;19.30;13.90;;;;;;;17.74;87.05;99370.63;5034950;28;20481;-72
2022/06/07 02:44:01;;;;;;;28.25;14.30;;;;;;;17.62;88.32;99388.66;5033787;28;20025;-72
2022/06/07 02:46:27;;;;;;;18.05;12.23;;;;;;;17.85;86.82;99375.56;5035006;28;20103;-72
2022/06/07 02:48:52;;;;;;;17.90;11.93;;;;;;;17.96;86.16;99387.81;5033278;28;20037;-72
2022/06/07 02:51:18;;;;;;;15.15;12.45;;;;;;;18.12;85.08;99383.97;5034814;28;20029;-72
2022/06/07 02:53:44;;;;;;;14.82;11.52;;;;;;;18.12;85.04;99381.16;5033590;28;20022;-72
2022/06/07 02:56:10;;;;;;;16.80;11.48;;;;;;;18.13;85.00;99391.25;5034640;28;20037;-72
2022/06/07 02:58:35;;;;;;;21.60;11.25;;;;;;;18.15;84.77;99386.03;5034858;28;20032;-72
2022/06/07 03:01:01;;;;;;;17.95;11.93;;;;;;;18.23;84.33;99390.56;5034719;28;20113;-73
2022/06/07 03:03:27;;;;;;;19.10;10.68;;;;;;;18.14;84.67;99384.41;5033339;28;20443;-74
2022/06/07 03:05:54;;;;;;;15.82;10.52;;;;;;;18.21;84.03;99392.94;5034728;28;20025;-73
2022/06/07 03:08:20;;;;;;;17.90;9.85;;;;;;;18.32;83.50;99387.41;5034430;28;20126;-74
2022/06/07 03:10:47;;;;;;;15.15;8.68;;;;;;;18.31;83.14;99388.63;5033116;28;20036;-74
2022/06/07 03:13:13;;;;;;;15.43;9.68;;;;;;;18.43;82.93;99391.16;5028661;28;20747;-73
2022/06/07 03:15:40;;;;;;;16.90;10.50;;;;;;;18.52;82.97;99397.31;5034574;28;20064;-73
2022/06/07 03:18:06;;;;;;;15.05;9.68;;;;;;;18.53;82.71;99389.59;5034421;28;20512;-72
2022/06/07 03:20:32;;;;;;;14.30;10.45;;;;;;;18.12;84.43;99395.31;5034399;28;20052;-71
2022/06/07 03:22:58;;;;;;;16.27;13.57;;;;;;;17.59;87.59;99388.59;5034318;28;20108;-70
2022/06/07 03:25:24;;;;;;;24.95;14.43;;;;;;;17.53;89.52;99396.59;5034298;28;20100;-72
2022/06/07 03:27:50;;;;;;;21.90;14.18;;;;;;;17.50;89.35;99403.03;5032677;28;20036;-70
2022/06/07 03:30:16;;;;;;;37.45;16.27;;;;;;;17.22;90.92;99404.28;5032328;28;20029;-71
2022/06/07 03:32:43;;;;;;;31.98;17.20;;;;;;;17.05;92.40;99400.81;5033142;28;20032;-69
2022/06/07 03:35:09;;;;;;;24.48;17.88;;;;;;;17.04;92.83;99404.81;5033665;28;20042;-71
2022/06/07 03:37:36;;;;;;;24.25;16.35;;;;;;;17.03;93.51;99396.75;5033034;28;20029;-71
2022/06/07 03:40:07;;;;;;;28.35;15.52;;;;;;;16.91;93.93;99398.56;5033020;28;20025;-71
2022/06/07 03:42:34;;;;;;;22.90;14.73;;;;;;;16.92;93.55;99399.34;5032491;28;20432;-71
2022/06/07 03:44:59;;;;;;;23.65;16.67;;;;;;;16.79;94.44;99393.94;5032635;28;20026;-71
2022/06/07 03:47:24;;;;;;;33.63;15.77;;;;;;;16.68;94.79;99390.94;5033614;28;20052;-71
2022/06/07 03:49:50;;;;;;;22.15;15.57;;;;;;;16.86;94.82;99398.88;5030605;28;20108;-71
2022/06/07 03:52:16;;;;;;;28.17;15.73;;;;;;;16.88;93.81;99410.59;5034656;28;20029;-71
2022/06/07 03:54:42;;;;;;;28.63;15.65;;;;;;;16.88;94.10;99407.78;5033743;28;20385;-71
2022/06/07 03:57:08;;;;;;;31.95;15.98;;;;;;;17.01;93.86;99410.41;5032933;28;20078;-71
2022/06/07 03:59:34;;;;;;;22.52;13.45;;;;;;;16.88;93.04;99402.13;5032355;28;20025;-71
2022/06/07 04:01:59;;;;;;;20.30;13.77;;;;;;;16.68;93.43;99407.88;5030891;28;20108;-71
2022/06/07 04:04:25;;;;;;;25.85;13.77;;;;;;;16.66;94.19;99407.47;5030704;28;20028;-71
2022/06/07 04:09:39;;;;;;;30.33;13.52;;;;;;;16.90;92.75;99413.88;5032308;28;20076;-71
2022/06/07 04:12:10;;;;;;;15.85;12.85;;;;;;;17.07;92.16;99411.72;5031123;28;20188;-71
2022/06/07 04:14:37;;;;;;;21.75;12.23;;;;;;;17.04;92.16;99404.03;5032193;28;20032;-71
2022/06/07 04:17:03;;;;;;;19.23;12.30;;;;;;;17.08;91.93;99427.47;5033341;28;20026;-71
2022/06/07 04:19:28;;;;;;;18.23;12.82;;;;;;;16.93;92.77;99418.78;5032972;28;20029;-71
2022/06/07 04:21:54;;;;;;;19.38;12.57;;;;;;;16.96;93.40;99431.31;5033365;28;20526;-71
2022/06/07 04:24:19;;;;;;;27.00;13.57;;;;;;;17.08;93.00;99433.97;5033250;28;20464;-71
2022/06/07 04:26:45;;;;;;;20.80;13.27;;;;;;;16.95;93.82;99426.84;5032939;28;20037;-71
2022/06/07 04:29:10;;;;;;;24.45;12.82;;;;;;;16.93;94.27;99430.06;5033114;28;20464;-71
2022/06/07 04:31:36;;;;;;;28.73;14.15;;;;;;;16.80;93.76;99429.44;5033046;28;20033;-71
2022/06/07 04:34:01;;;;;;;23.92;14.32;;;;;;;16.90;94.37;99430.84;5032845;28;20036;-71
2022/06/07 04:36:31;;;;;;;23.52;14.05;;;;;;;17.20;93.18;99435.75;5032586;28;20468;-71
2022/06/07 04:38:57;;;;;;;18.97;13.67;;;;;;;17.08;93.04;99430.31;5032970;28;20487;-71
2022/06/07 04:41:23;;;;;;;24.33;12.80;;;;;;;17.05;93.76;99431.88;5032842;28;20021;-71
2022/06/07 04:43:50;;;;;;;35.40;14.25;;;;;;;17.07;94.89;99437.16;5032646;28;20108;-71
2022/06/07 04:46:16;;;;;;;32.83;15.73;;;;;;;17.24;94.81;99428.13;5032437;28;20445;-71
2022/06/07 04:48:43;;;;;;;40.90;14.57;;;;;;;17.38;93.60;99441.66;5032122;28;20098;-71
2022/06/07 04:51:17;;;;;;;20.60;13.50;;;;;;;17.51;93.32;99439.41;5030581;28;20040;-71
2022/06/07 04:53:42;;;;;;;24.15;13.30;;;;;;;17.56;91.61;99434.63;5032423;28;20026;-71
2022/06/07 04:56:14;;;;;;;25.42;13.38;;;;;;;17.40;92.19;99444.09;5032741;28;20033;-71
2022/06/07 04:58:39;;;;;;;24.50;12.98;;;;;;;17.46;92.25;99434.09;5032048;28;20446;-71
2022/06/07 05:01:10;;;;;;;21.45;13.55;;;;;;;17.44;93.50;99453.44;5031508;28;20061;-71
2022/06/07 05:03:35;;;;;;;28.80;14.32;;;;;;;17.46;93.21;99458.72;5030783;28;20447;-71
2022/06/07 05:06:01;;;;;;;19.95;14.20;;;;;;;17.45;93.25;99463.56;5030893;28;20025;-71
2022/06/07 05:08:26;;;;;;;29.27;14.43;;;;;;;17.45;93.42;99455.06;5031021;28;20025;-71
2022/06/07 05:10:54;;;;;;;20.13;13.02;;;;;;;17.36;93.61;99457.34;5029994;28;20025;-71
2022/06/07 05:13:21;;;;;;;17.88;13.30;;;;;;;17.31;92.75;99457.69;5030878;28;20261;-71
2022/06/07 05:15:56;;;;;;;23.23;12.55;;;;;;;17.45;93.14;99463.56;5023361;28;20398;-71
2022/06/07 05:18:21;;;;;;;16.83;13.10;;;;;;;17.46;92.52;99462.34;5031318;28;20108;-71
2022/06/07 05:20:47;;;;;;;22.63;12.90;;;;;;;17.60;91.96;99455.25;5021208;28;20105;-71
2022/06/07 05:23:12;;;;;;;21.75;12.80;;;;;;;17.62;92.04;99448.03;5031525;28;20511;-71
2022/06/07 05:25:38;;;;;;;26.10;13.88;;;;;;;17.69;91.42;99464.28;5030715;28;20033;-71
2022/06/07 05:28:04;;;;;;;19.77;13.60;;;;;;;17.75;91.90;99465.59;5031442;28;20021;-71
2022/06/07 05:30:30;;;;;;;21.02;13.00;;;;;;;17.81;90.36;99463.25;5025489;28;20033;-71
2022/06/07 05:32:56;;;;;;;16.88;12.65;;;;;;;17.91;90.40;99461.72;5028691;28;21714;-71
2022/06/07 05:35:22;;;;;;;19.95;13.35;;;;;;;17.93;88.57;99460.16;5030892;28;20504;-71
2022/06/07 05:37:47;;;;;;;16.75;12.75;;;;;;;17.75;88.98;99462.75;5031816;28;20030;-71
2022/06/07 05:40:13;;;;;;;18.35;13.05;;;;;;;18.08;88.67;99463.97;5029584;28;20032;-71
2022/06/07 05:42:38;;;;;;;18.00;12.20;;;;;;;18.00;87.57;99452.94;5028005;28;20087;-71
2022/06/07 05:45:04;;;;;;;16.75;12.35;;;;;;;18.19;86.90;99466.13;5030002;28;20642;-72
2022/06/07 05:47:30;;;;;;;23.65;13.15;;;;;;;18.26;87.17;99460.53;5031933;28;20059;-72
2022/06/07 05:49:55;;;;;;;21.75;11.30;;;;;;;18.62;84.88;99465.75;5031752;28;20029;-72
2022/06/07 05:52:21;;;;;;;18.13;10.60;;;;;;;18.75;81.78;99474.78;5027080;28;20029;-72
2022/06/07 05:54:46;;;;;;;16.90;11.15;;;;;;;18.74;82.05;99470.31;5030662;28;20028;-71
2022/06/07 05:57:12;;;;;;;19.23;11.00;;;;;;;18.81;81.46;99464.69;5030103;28;20053;-71
2022/06/07 05:59:39;;;;;;;16.98;10.40;;;;;;;18.91;82.04;99471.69;5029490;28;20104;-72
2022/06/07 06:02:04;;;;;;;14.02;10.93;;;;;;;18.73;82.89;99474.34;5030915;28;20184;-71
2022/06/07 06:04:30;;;;;;;14.35;12.43;;;;;;;18.94;82.53;99466.03;5029723;28;20538;-71
2022/06/07 06:06:57;;;;;;;20.33;12.18;;;;;;;19.10;83.22;99466.97;5030533;28;20112;-75
2022/06/07 06:12:08;;;;;;;16.45;11.57;;;;;;;19.52;80.93;99467.66;5030973;28;20033;-73
2022/06/07 06:14:33;;;;;;;17.58;10.85;;;;;;;19.39;80.50;99465.16;5029285;28;20415;-72
2022/06/07 06:16:59;;;;;;;13.63;9.90;;;;;;;19.33;78.74;99446.91;5030084;28;20093;-71
2022/06/07 06:19:24;;;;;;;15.68;10.05;;;;;;;19.46;79.34;99453.03;5026469;28;20782;-71
2022/06/07 06:21:50;;;;;;;25.67;10.65;;;;;;;19.64;79.16;99450.31;5018909;28;20041;-72
2022/06/07 06:24:17;;;;;;;16.42;9.90;;;;;;;19.80;77.51;99447.13;5029390;28;20025;-71
2022/06/07 06:26:43;;;;;;;15.82;9.75;;;;;;;20.01;77.72;99442.78;5026168;28;20026;-71
2022/06/07 06:29:10;;;;;;;14.05;10.25;;;;;;;20.20;76.31;99450.16;5019827;28;20437;-71
2022/06/07 06:31:37;;;;;;;11.65;9.73;;;;;;;20.40;74.28;99446.97;5030041;28;20625;-70
2022/06/07 06:34:03;;;;;;;12.32;8.88;;;;;;;20.60;74.37;99444.53;5029159;28;20029;-70
2022/06/07 06:36:30;;;;;;;13.57;9.35;;;;;;;20.68;73.70;99440.47;5026956;28;20060;-70
2022/06/07 06:38:55;;;;;;;10.45;7.97;;;;;;;20.73;72.44;99437.25;5030103;28;20080;-70
2022/06/07 06:41:26;;;;;;;14.65;7.95;;;;;;;20.60;70.20;99439.66;5030537;28;20034;-70
2022/06/07 06:43:53;;;;;;;9.65;8.45;;;;;;;20.74;70.48;99450.22;5028623;28;20515;-70
2022/06/07 06:46:28;;;;;;;12.07;7.95;;;;;;;20.81;68.87;99434.38;5028031;28;20537;-70
2022/06/07 06:48:55;;;;;;;8.63;6.78;;;;;;;21.01;67.43;99441.31;5028938;28;20036;-71
2022/06/07 06:51:23;;;;;;;15.55;7.88;;;;;;;21.23;66.38;99449.00;5029418;28;20068;-71
2022/06/07 06:53:49;;;;;;;10.52;6.53;;;;;;;21.14;63.83;99450.25;5027891;28;20026;-70
2022/06/07 06:56:19;;;;;;;11.00;6.25;;;;;;;21.15;64.02;99440.50;5029324;28;20477;-70
2022/06/07 06:58:45;;;;;;;10.27;6.03;;;;;;;21.24;60.88;99436.44;5027446;28;20033;-71
2022/06/07 07:01:16;;;;;;;8.93;5.80;;;;;;;21.40;63.18;99436.78;5025924;28;20033;-71
2022/06/07 07:03:42;;;;;;;9.50;5.90;;;;;;;21.44;59.31;99440.44;5012843;28;20037;-70
2022/06/07 07:06:10;;;;;;;10.32;6.25;;;;;;;21.68;61.80;99440.78;5021564;28;20034;-69
2022/06/07 07:08:38;;;;;;;5.85;5.32;;;;;;;21.64;62.10;99436.31;5030322;28;20029;-70
2022/06/07 07:11:21;;;;;;;11.13;6.18;;;;;;;21.76;61.69;99423.69;5030429;28;20033;-71
2022/06/07 07:13:49;;;;;;;12.40;5.53;;;;;;;21.85;60.18;99426.91;5029405;28;20113;-71
2022/06/07 07:16:21;;;;;;;5.60;5.03;;;;;;;21.97;57.90;99429.31;5030812;28;20040;-71
2022/06/07 07:18:47;;;;;;;15.27;6.07;;;;;;;21.93;57.71;99433.38;5029407;28;20515;-71
2022/06/07 07:21:17;;;;;;;15.15;5.43;;;;;;;22.06;57.45;99425.16;5031005;28;20029;-70
2022/06/07 07:23:43;;;;;;;11.90;4.90;;;;;;;22.04;57.27;99419.09;5034554;28;20032;-71
2022/06/07 07:26:15;;;;;;;6.03;4.28;;;;;;;22.11;55.37;99419.06;5034120;28;20504;-71
2022/06/07 07:28:41;;;;;;;10.88;5.82;;;;;;;22.16;59.06;99413.72;5030251;28;20590;-70
2022/06/07 07:31:13;;;;;;;6.35;4.85;;;;;;;22.49;55.70;99419.25;5029820;28;20495;-71
2022/06/07 07:33:39;;;;;;;12.15;4.53;;;;;;;22.80;55.39;99415.75;5034105;28;20026;-72
2022/06/07 07:36:05;;;;;;;9.80;5.32;;;;;;;22.80;54.30;99405.13;5032554;28;20064;-70
2022/06/07 07:38:32;;;;;;;9.07;4.53;;;;;;;23.06;55.09;99405.72;5031086;28;20124;-71
2022/06/07 07:40:57;;;;;;;11.57;5.30;;;;;;;22.86;53.01;99397.75;5033502;28;20521;-70
2022/06/07 07:43:23;;;;;;;7.35;5.22;;;;;;;22.86;53.32;99392.06;5031831;28;20120;-72
2022/06/07 07:45:53;;;;;;;6.40;4.05;;;;;;;22.84;52.11;99400.22;5033500;28;20048;-71
2022/06/07 07:48:19;;;;;;;;;;;;;;;23.01;51.95;99403.31;5032921;28;20076;-72
2022/06/07 07:50:45;;;;;;;7.55;5.43;;;;;;;23.14;51.54;99392.22;5033293;28;20331;-71
2022/06/07 07:53:11;;;;;;;13.85;5.70;;;;;;;23.19;52.19;99390.94;5033160;28;20117;-72
2022/06/07 07:55:44;;;;;;;6.13;4.75;;;;;;;23.14;50.53;99395.06;5032681;28;20033;-71
2022/06/07 07:58:11;;;;;;;14.18;5.30;;;;;;;23.36;51.10;99392.81;5032810;28;20037;-72
2022/06/07 08:00:37;;;;;;;10.73;5.85;;;;;;;23.63;50.71;99386.34;5033109;28;20392;-71
2022/06/07 08:03:03;;;;;;;7.35;5.43;;;;;;;23.79;49.59;99382.91;5033154;28;20029;-71
2022/06/07 08:05:31;;;;;;;6.07;4.88;;;;;;;23.92;49.25;99386.00;5032855;28;20033;-72
2022/06/07 08:07:56;;;;;;;10.88;5.53;;;;;;;24.08;49.26;99396.00;5032709;28;20040;-71
2022/06/07 08:10:22;;;;;;;13.23;6.25;;;;;;;24.23;48.89;99385.19;5033268;28;20025;-71
2022/06/07 08:12:47;;;;;;;7.07;5.22;;;;;;;23.97;49.22;99384.72;5031957;28;20353;-69
2022/06/07 08:15:13;;;;;;;9.13;5.15;;;;;;;24.17;48.46;99381.19;5032768;28;20083;-71
2022/06/07 08:17:39;;;;;;;9.52;5.72;;;;;;;23.81;49.56;99376.78;5032433;28;20024;-71
2022/06/07 08:20:05;;;;;;;9.00;6.38;;;;;;;23.43;49.05;99369.06;5030175;28;20039;-71
2022/06/07 08:22:30;;;;;;;6.25;5.55;;;;;;;23.42;49.55;99367.47;5027810;28;20559;-71
2022/06/07 08:24:56;;;;;;;9.52;5.72;;;;;;;23.78;48.92;99369.06;5032815;28;20025;-70
2022/06/07 08:27:21;;;;;;;6.88;5.15;;;;;;;24.12;50.57;99376.75;5025061;28;20475;-70
2022/06/07 08:29:46;;;;;;;7.88;4.50;;;;;;;24.48;47.58;99372.56;5031075;28;20120;-70
2022/06/07 08:32:12;;;;;;;6.22;4.18;;;;;;;24.67;46.50;99356.72;5032256;28;20440;-76
2022/06/07 08:37:33;;;;;;;5.25;4.38;;;;;;;24.40;46.78;99366.16;5031801;28;20424;-73
2022/06/07 08:40:01;;;;;;;3.75;3.45;;;;;;;24.78;43.41;99368.81;5032182;28;20021;-71
2022/06/07 08:42:34;;;;;;;4.85;3.15;;;;;;;24.81;42.69;99347.91;5031040;28;20500;-71
2022/06/07 08:45:08;;;;;;;6.32;2.75;;;;;;;24.93;43.08;99357.09;5030533;28;20045;-72
2022/06/07 08:47:52;;;;;;;4.57;3.00;;;;;;;25.13;43.72;99353.47;5026725;28;20103;-72
2022/06/07 08:50:21;;;;;;;6.57;2.90;;;;;;;25.19;42.65;99352.53;5027629;28;20025;-73
2022/06/07 08:52:51;;;;;;;4.28;3.08;;;;;;;25.15;41.78;99339.53;5031135;28;20025;-75
2022/06/07 08:55:47;;;;;;;3.20;2.97;;;;;;;25.19;43.18;99349.66;5033067;28;20033;-73
2022/06/07 08:58:22;;;;;;;4.82;3.55;;;;;;;25.26;42.23;99339.31;5022812;28;20107;-73
2022/06/07 09:00:53;;;;;;;4.65;2.85;;;;;;;25.36;40.40;99338.28;5032479;28;20113;-70
2022/06/07 09:03:40;;;;;;;5.65;3.67;;;;;;;25.48;41.79;99342.56;5031209;28;20032;-73
2022/06/07 09:06:16;;;;;;;4.28;3.22;;;;;;;25.47;40.24;99333.16;5031188;28;20033;-75
2022/06/07 09:08:49;;;;;;;5.20;3.00;;;;;;;25.63;41.66;99335.28;5027581;28;20029;-73
2022/06/07 09:14:22;;;;;;;4.05;3.03;;;;;;;25.42;40.25;99327.13;5028579;28;20518;-76
2022/06/07 09:16:47;;;;;;;2.88;2.67;;;;;;;25.57;40.86;99328.47;5026498;28;20044;-74
2022/06/07 09:19:22;;;;;;;5.60;2.80;;;;;;;25.85;40.92;99323.38;5028425;28;20025;-74
2022/06/07 09:21:49;;;;;;;5.40;3.10;;;;;;;25.95;39.52;99323.56;5010891;28;20563;-73
2022/06/07 09:24:40;;;;;;;3.10;2.90;;;;;;;26.12;40.20;99319.47;5008768;28;20048;-75
2022/06/07 09:27:06;;;;;;;5.28;2.90;;;;;;;26.13;41.68;99320.28;4999757;28;20124;-74
2022/06/07 09:29:36;;;;;;;4.70;2.53;;;;;;;26.26;40.31;99318.34;5008862;28;20717;-73
2022/06/07 09:32:08;;;;;;;8.55;4.60;;;;;;;26.40;40.23;99316.38;5007284;28;20030;-73
2022/06/07 09:34:33;;;;;;;3.00;2.65;;;;;;;25.97;39.16;99301.00;5012759;28;20069;-70
2022/06/07 09:37:05;;;;;;;6.93;3.35;;;;;;;25.70;39.83;99317.16;5020426;28;20513;-70
2022/06/07 09:39:40;;;;;;;4.22;3.60;;;;;;;25.14;40.25;99303.59;5028091;28;20034;-71
2022/06/07 09:42:16;;;;;;;4.15;3.10;;;;;;;24.98;41.50;99301.44;5027231;28;20086;-72
2022/06/07 09:44:54;;;;;;;4.47;3.17;;;;;;;25.12;40.51;99300.38;5026846;28;20026;-71
2022/06/07 09:47:25;;;;;;;6.15;3.42;;;;;;;25.12;41.32;99291.78;5028484;28;20034;-71
2022/06/07 09:49:58;;;;;;;2.90;2.70;;;;;;;25.08;41.36;99280.41;5027292;28;20120;-70
2022/06/07 09:52:26;;;;;;;6.00;3.00;;;;;;;25.29;40.93;99289.81;5023242;28;20039;-72
2022/06/07 09:55:01;;;;;;;5.47;2.90;;;;;;;25.74;41.49;99283.50;5028570;28;20044;-72
2022/06/07 09:57:39;;;;;;;3.60;3.30;;;;;;;26.08;41.24;99290.09;5028206;28;20405;-74
2022/06/07 10:00:32;;;;;;;5.22;3.08;;;;;;;26.06;39.46;99286.84;5025021;28;20440;-70
2022/06/07 10:03:15;;;;;;;8.50;3.40;;;;;;;26.05;41.04;99283.19;5027474;28;20033;-74
2022/06/07 10:05:47;;;;;;;4.15;2.90;;;;;;;26.00;39.98;99282.91;5027461;28;20041;-73
2022/06/07 10:08:37;;;;;;;5.13;3.13;;;;;;;26.23;40.11;99279.09;5023943;28;20059;-75
2022/06/07 10:11:14;;;;;;;5.72;3.38;;;;;;;25.67;40.88;99268.53;5024732;28;20124;-72
2022/06/07 10:13:45;;;;;;;6.32;3.72;;;;;;;24.99;41.30;99260.97;5026605;28;20046;-72
2022/06/07 10:16:39;;;;;;;5.20;3.10;;;;;;;24.57;42.59;99261.34;5007474;28;20088;-73
2022/06/07 10:19:27;;;;;;;5.88;3.78;;;;;;;25.04;43.43;99253.91;5004434;28;20128;-75
2022/06/07 10:22:13;;;;;;;8.95;3.55;;;;;;;25.53;43.76;99252.53;5024285;28;20036;-75
2022/06/07 10:25:11;;;;;;;6.47;3.42;;;;;;;25.85;40.59;99248.06;5025699;28;20026;-72
2022/06/07 10:28:03;;;;;;;6.35;3.50;;;;;;;26.04;42.34;99244.34;5016794;28;20079;-72
2022/06/07 10:30:28;;;;;;;5.30;3.50;;;;;;;26.39;40.33;99240.22;5021441;28;20030;-72
2022/06/07 10:33:15;;;;;;;5.50;3.53;;;;;;;26.69;40.12;99235.31;5028593;28;20021;-73
2022/06/07 10:36:11;;;;;;;5.43;3.20;;;;;;;26.83;40.33;99226.31;5024247;28;20493;-72
2022/06/07 10:39:04;;;;;;;4.18;2.95;;;;;;;27.01;41.11;99222.97;5020185;28;20040;-72
2022/06/07 10:41:37;;;;;;;8.30;3.53;;;;;;;27.10;38.35;99221.50;5029905;28;20029;-73
2022/06/07 10:44:29;;;;;;;10.60;3.67;;;;;;;27.18;39.10;99220.81;5021704;28;20029;-73
2022/06/07 10:46:55;;;;;;;4.50;3.08;;;;;;;27.18;39.40;99220.03;5029954;28;20044;-72
2022/06/07 10:49:39;;;;;;;16.10;5.03;;;;;;;27.22;39.85;99219.94;5030041;28;20040;-73
2022/06/07 10:52:41;;;;;;;5.13;3.20;;;;;;;27.26;38.05;99209.13;5025843;28;20100;-72
2022/06/07 10:55:25;;;;;;;4.03;3.70;;;;;;;27.31;38.58;99209.38;5021182;28;20556;-73
2022/06/07 10:58:35;;;;;;;12.30;3.45;;;;;;;27.42;38.75;99200.41;5025406;28;20033;-73
2022/06/07 11:01:16;;;;;;;4.80;3.45;;;;;;;27.56;39.38;99204.13;5007166;28;20096;-73
2022/06/07 11:09:19;;;;;;;9.63;3.72;;;;;;;27.71;37.00;99195.84;5031544;28;20039;-73
2022/06/07 11:09:48;;;;;;;6.97;4.30;;;;;;;28.08;37.86;99183.97;5033431;28;20531;-73
2022/06/07 11:12:22;;;;;;;3.30;3.00;;;;;;;27.75;35.47;99176.41;5031827;28;20455;-73
2022/06/07 11:15:02;;;;;;;4.43;2.63;;;;;;;28.03;37.03;99176.75;5030109;28;20051;-72
2022/06/07 11:17:39;;;;;;;7.53;3.10;;;;;;;28.37;36.35;99165.75;5032791;28;20424;-73
2022/06/07 11:20:29;;;;;;;3.42;2.60;;;;;;;28.60;35.79;99158.75;5031491;28;20033;-72
2022/06/07 11:23:06;;;;;;;3.20;2.83;;;;;;;28.49;36.53;99158.34;5025622;28;20480;-73
2022/06/07 11:25:36;;;;;;;3.20;3.00;;;;;;;28.54;34.38;99149.94;5025964;28;20416;-73
2022/06/07 11:28:20;;;;;;;4.40;3.10;;;;;;;28.26;33.98;99158.31;5027338;28;20060;-72
2022/06/07 11:30:49;;;;;;;4.75;3.00;;;;;;;28.12;34.79;99148.09;5034010;28;20025;-73
2022/06/07 11:33:50;;;;;;;4.53;2.88;;;;;;;27.60;35.65;99151.06;5033924;28;20040;-73
2022/06/07 11:36:41;;;;;;;4.60;3.13;;;;;;;27.61;37.01;99146.91;4953385;29;20114;-73
2022/06/07 11:39:50;;;;;;;9.20;3.58;;;;;;;27.79;34.97;99151.28;5025410;28;20139;-74
2022/06/07 11:42:27;;;;;;;3.97;2.63;;;;;;;28.30;36.74;99140.94;5029064;28;20412;-73
2022/06/07 11:45:05;;;;;;;7.93;3.28;;;;;;;28.53;35.72;99148.28;5024756;28;20072;-73
2022/06/07 11:47:45;;;;;;;7.18;2.90;;;;;;;28.52;36.55;99134.41;5027615;28;20037;-72
2022/06/07 11:50:32;;;;;;;3.00;2.72;;;;;;;28.48;34.91;99134.53;5030386;28;20052;-72
2022/06/07 11:53:19;;;;;;;3.42;3.10;;;;;;;28.21;35.26;99127.28;4993820;28;20130;-73
2022/06/07 11:55:46;;;;;;;4.68;3.15;;;;;;;28.23;34.63;99124.75;5030273;28;20033;-73
2022/06/07 11:58:12;;;;;;;6.05;2.90;;;;;;;27.79;34.87;99113.94;5031721;28;20029;-73
2022/06/07 12:00:42;;;;;;;3.53;3.22;;;;;;;27.89;37.52;99117.69;5024978;28;20033;-72